sensor_id;sensor_type;location;lat;lon;timestamp;P1;durP1;ratioP1;P2;durP2;ratioP2
4353;SDS011;11018;51.258;6.806;2023-02-07T00:02:20;44.60;;;22.30;;
4353;SDS011;11018;51.258;6.806;2023-02-07T00:04:45;54.50;;;22.45;;
4353;SDS011;11018;51.258;6.806;2023-02-07T00:07:11;51.23;;;22.00;;
4353;SDS011;11018;51.258;6.806;2023-02-07T00:09:36;52.77;;;24.67;;
4353;SDS011;11018;51.258;6.806;2023-02-07T00:12:02;49.40;;;24.87;;
4353;SDS011;11018;51.258;6.806;2023-02-07T00:14:28;56.92;;;24.58;;
4353;SDS011;11018;51.258;6.806;2023-02-07T00:16:54;54.93;;;25.40;;
4353;SDS011;11018;51.258;6.806;2023-02-07T00:19:19;52.58;;;22.90;;
4353;SDS011;11018;51.258;6.806;2023-02-07T00:21:45;56.25;;;25.02;;
4353;SDS011;11018;51.258;6.806;2023-02-07T00:24:11;63.03;;;28.97;;
4353;SDS011;11018;51.258;6.806;2023-02-07T00:26:36;57.50;;;26.57;;
4353;SDS011;11018;51.258;6.806;2023-02-07T00:29:02;65.60;;;26.98;;
4353;SDS011;11018;51.258;6.806;2023-02-07T00:31:29;58.00;;;27.00;;
4353;SDS011;11018;51.258;6.806;2023-02-07T00:33:57;59.03;;;24.98;;
4353;SDS011;11018;51.258;6.806;2023-02-07T00:36:27;61.00;;;26.52;;
4353;SDS011;11018;51.258;6.806;2023-02-07T00:38:58;66.28;;;27.70;;
4353;SDS011;11018;51.258;6.806;2023-02-07T00:41:25;70.70;;;27.80;;
4353;SDS011;11018;51.258;6.806;2023-02-07T00:43:51;66.37;;;26.43;;
4353;SDS011;11018;51.258;6.806;2023-02-07T00:46:17;70.95;;;28.63;;
4353;SDS011;11018;51.258;6.806;2023-02-07T00:48:43;70.30;;;27.17;;
4353;SDS011;11018;51.258;6.806;2023-02-07T00:51:09;63.58;;;28.15;;
4353;SDS011;11018;51.258;6.806;2023-02-07T00:53:37;66.55;;;25.83;;
4353;SDS011;11018;51.258;6.806;2023-02-07T00:56:04;62.25;;;26.33;;
4353;SDS011;11018;51.258;6.806;2023-02-07T00:58:30;67.80;;;27.35;;
4353;SDS011;11018;51.258;6.806;2023-02-07T01:00:56;67.55;;;26.25;;
4353;SDS011;11018;51.258;6.806;2023-02-07T01:03:22;68.47;;;25.77;;
4353;SDS011;11018;51.258;6.806;2023-02-07T01:05:48;59.45;;;25.70;;
4353;SDS011;11018;51.258;6.806;2023-02-07T01:08:13;58.30;;;25.58;;
4353;SDS011;11018;51.258;6.806;2023-02-07T01:10:40;64.80;;;25.17;;
4353;SDS011;11018;51.258;6.806;2023-02-07T01:13:08;52.75;;;23.55;;
4353;SDS011;11018;51.258;6.806;2023-02-07T01:15:37;62.42;;;26.85;;
4353;SDS011;11018;51.258;6.806;2023-02-07T01:18:04;56.10;;;25.23;;
4353;SDS011;11018;51.258;6.806;2023-02-07T01:20:31;54.03;;;24.20;;
4353;SDS011;11018;51.258;6.806;2023-02-07T01:22:56;63.00;;;25.27;;
4353;SDS011;11018;51.258;6.806;2023-02-07T01:25:22;49.10;;;23.93;;
4353;SDS011;11018;51.258;6.806;2023-02-07T01:27:47;58.20;;;23.27;;
4353;SDS011;11018;51.258;6.806;2023-02-07T01:30:13;52.90;;;23.00;;
4353;SDS011;11018;51.258;6.806;2023-02-07T01:32:38;57.90;;;22.60;;
4353;SDS011;11018;51.258;6.806;2023-02-07T01:35:04;53.95;;;22.45;;
4353;SDS011;11018;51.258;6.806;2023-02-07T01:37:30;56.08;;;23.17;;
4353;SDS011;11018;51.258;6.806;2023-02-07T01:39:55;52.47;;;21.63;;
4353;SDS011;11018;51.258;6.806;2023-02-07T01:42:22;46.15;;;20.80;;
4353;SDS011;11018;51.258;6.806;2023-02-07T01:47:16;48.28;;;22.02;;
4353;SDS011;11018;51.258;6.806;2023-02-07T01:49:44;42.50;;;20.90;;
4353;SDS011;11018;51.258;6.806;2023-02-07T01:52:16;47.33;;;20.95;;
4353;SDS011;11018;51.258;6.806;2023-02-07T01:54:45;41.73;;;20.23;;
4353;SDS011;11018;51.258;6.806;2023-02-07T01:57:14;39.85;;;19.60;;
4353;SDS011;11018;51.258;6.806;2023-02-07T01:59:43;52.67;;;20.60;;
4353;SDS011;11018;51.258;6.806;2023-02-07T02:02:10;42.72;;;18.80;;
4353;SDS011;11018;51.258;6.806;2023-02-07T02:04:39;42.20;;;19.85;;
4353;SDS011;11018;51.258;6.806;2023-02-07T02:07:05;43.65;;;19.50;;
4353;SDS011;11018;51.258;6.806;2023-02-07T02:09:33;42.03;;;19.95;;
4353;SDS011;11018;51.258;6.806;2023-02-07T02:15:02;47.27;;;20.37;;
4353;SDS011;11018;51.258;6.806;2023-02-07T02:17:47;44.72;;;19.90;;
4353;SDS011;11018;51.258;6.806;2023-02-07T02:31:52;44.38;;;19.42;;
4353;SDS011;11018;51.258;6.806;2023-02-07T02:37:49;46.25;;;20.30;;
4353;SDS011;11018;51.258;6.806;2023-02-07T02:40:32;39.47;;;19.23;;
4353;SDS011;11018;51.258;6.806;2023-02-07T02:43:20;44.65;;;20.02;;
4353;SDS011;11018;51.258;6.806;2023-02-07T02:45:57;37.65;;;18.15;;
4353;SDS011;11018;51.258;6.806;2023-02-07T02:48:25;38.30;;;18.45;;
4353;SDS011;11018;51.258;6.806;2023-02-07T02:50:52;41.72;;;18.20;;
4353;SDS011;11018;51.258;6.806;2023-02-07T02:53:19;41.50;;;19.30;;
4353;SDS011;11018;51.258;6.806;2023-02-07T03:07:55;41.90;;;18.77;;
4353;SDS011;11018;51.258;6.806;2023-02-07T03:12:56;35.70;;;16.13;;
4353;SDS011;11018;51.258;6.806;2023-02-07T03:15:34;28.17;;;15.40;;
4353;SDS011;11018;51.258;6.806;2023-02-07T03:18:14;32.73;;;16.70;;
4353;SDS011;11018;51.258;6.806;2023-02-07T03:20:54;39.58;;;16.55;;
4353;SDS011;11018;51.258;6.806;2023-02-07T03:23:25;34.55;;;17.77;;
4353;SDS011;11018;51.258;6.806;2023-02-07T03:25:51;32.85;;;16.52;;
4353;SDS011;11018;51.258;6.806;2023-02-07T03:28:20;33.65;;;16.95;;
4353;SDS011;11018;51.258;6.806;2023-02-07T03:30:46;42.58;;;17.00;;
4353;SDS011;11018;51.258;6.806;2023-02-07T03:33:14;39.08;;;18.42;;
4353;SDS011;11018;51.258;6.806;2023-02-07T03:35:43;35.42;;;17.23;;
4353;SDS011;11018;51.258;6.806;2023-02-07T03:38:17;34.08;;;16.73;;
4353;SDS011;11018;51.258;6.806;2023-02-07T03:40:45;32.22;;;16.30;;
4353;SDS011;11018;51.258;6.806;2023-02-07T03:43:14;30.70;;;15.05;;
4353;SDS011;11018;51.258;6.806;2023-02-07T03:45:48;29.25;;;15.00;;
4353;SDS011;11018;51.258;6.806;2023-02-07T03:48:14;25.88;;;14.90;;
4353;SDS011;11018;51.258;6.806;2023-02-07T03:50:39;33.58;;;15.15;;
4353;SDS011;11018;51.258;6.806;2023-02-07T03:53:05;29.73;;;14.97;;
4353;SDS011;11018;51.258;6.806;2023-02-07T03:55:31;29.60;;;14.15;;
4353;SDS011;11018;51.258;6.806;2023-02-07T03:57:57;26.60;;;15.10;;
4353;SDS011;11018;51.258;6.806;2023-02-07T04:00:22;28.70;;;15.27;;
4353;SDS011;11018;51.258;6.806;2023-02-07T04:02:48;28.15;;;13.48;;
4353;SDS011;11018;51.258;6.806;2023-02-07T04:05:14;32.07;;;15.33;;
4353;SDS011;11018;51.258;6.806;2023-02-07T04:07:39;26.60;;;15.38;;
4353;SDS011;11018;51.258;6.806;2023-02-07T04:10:05;31.85;;;14.98;;
4353;SDS011;11018;51.258;6.806;2023-02-07T04:12:31;29.73;;;14.40;;
4353;SDS011;11018;51.258;6.806;2023-02-07T04:15:03;27.88;;;14.88;;
4353;SDS011;11018;51.258;6.806;2023-02-07T04:17:30;28.58;;;13.77;;
4353;SDS011;11018;51.258;6.806;2023-02-07T04:19:56;24.45;;;13.65;;
4353;SDS011;11018;51.258;6.806;2023-02-07T04:22:22;29.17;;;14.07;;
4353;SDS011;11018;51.258;6.806;2023-02-07T04:24:47;28.57;;;13.97;;
4353;SDS011;11018;51.258;6.806;2023-02-07T04:27:13;25.83;;;13.20;;
4353;SDS011;11018;51.258;6.806;2023-02-07T04:29:39;25.70;;;13.68;;
4353;SDS011;11018;51.258;6.806;2023-02-07T04:32:04;29.50;;;15.43;;
4353;SDS011;11018;51.258;6.806;2023-02-07T04:34:30;28.88;;;15.30;;
4353;SDS011;11018;51.258;6.806;2023-02-07T04:36:55;27.70;;;14.30;;
4353;SDS011;11018;51.258;6.806;2023-02-07T04:39:21;30.10;;;15.10;;
4353;SDS011;11018;51.258;6.806;2023-02-07T04:41:47;29.43;;;14.90;;
4353;SDS011;11018;51.258;6.806;2023-02-07T04:44:12;29.98;;;15.05;;
4353;SDS011;11018;51.258;6.806;2023-02-07T04:46:38;30.63;;;15.40;;
4353;SDS011;11018;51.258;6.806;2023-02-07T04:49:03;33.97;;;16.50;;
4353;SDS011;11018;51.258;6.806;2023-02-07T04:51:29;29.33;;;15.55;;
4353;SDS011;11018;51.258;6.806;2023-02-07T04:53:55;30.35;;;14.55;;
4353;SDS011;11018;51.258;6.806;2023-02-07T04:56:21;30.90;;;15.90;;
4353;SDS011;11018;51.258;6.806;2023-02-07T04:58:47;30.52;;;14.75;;
4353;SDS011;11018;51.258;6.806;2023-02-07T05:01:12;29.00;;;15.60;;
4353;SDS011;11018;51.258;6.806;2023-02-07T05:03:38;23.55;;;13.07;;
4353;SDS011;11018;51.258;6.806;2023-02-07T05:06:04;21.60;;;11.13;;
4353;SDS011;11018;51.258;6.806;2023-02-07T05:08:30;19.10;;;10.70;;
4353;SDS011;11018;51.258;6.806;2023-02-07T05:10:55;20.53;;;11.37;;
4353;SDS011;11018;51.258;6.806;2023-02-07T05:13:22;19.90;;;10.52;;
4353;SDS011;11018;51.258;6.806;2023-02-07T05:15:48;20.20;;;10.77;;
4353;SDS011;11018;51.258;6.806;2023-02-07T05:18:14;18.00;;;10.32;;
4353;SDS011;11018;51.258;6.806;2023-02-07T05:20:40;19.50;;;10.30;;
4353;SDS011;11018;51.258;6.806;2023-02-07T05:23:05;16.60;;;9.80;;
4353;SDS011;11018;51.258;6.806;2023-02-07T05:25:31;14.45;;;9.00;;
4353;SDS011;11018;51.258;6.806;2023-02-07T05:27:56;13.67;;;8.13;;
4353;SDS011;11018;51.258;6.806;2023-02-07T05:30:22;17.43;;;9.20;;
4353;SDS011;11018;51.258;6.806;2023-02-07T05:32:48;16.50;;;8.70;;
4353;SDS011;11018;51.258;6.806;2023-02-07T05:38:05;14.80;;;9.18;;
4353;SDS011;11018;51.258;6.806;2023-02-07T05:40:33;11.10;;;8.25;;
4353;SDS011;11018;51.258;6.806;2023-02-07T05:43:03;13.52;;;7.90;;
4353;SDS011;11018;51.258;6.806;2023-02-07T05:45:29;13.87;;;8.43;;
4353;SDS011;11018;51.258;6.806;2023-02-07T05:47:54;13.48;;;8.70;;
4353;SDS011;11018;51.258;6.806;2023-02-07T05:50:20;16.13;;;9.13;;
4353;SDS011;11018;51.258;6.806;2023-02-07T05:52:46;13.82;;;8.45;;
4353;SDS011;11018;51.258;6.806;2023-02-07T05:55:12;13.30;;;8.80;;
4353;SDS011;11018;51.258;6.806;2023-02-07T05:57:41;17.77;;;8.60;;
4353;SDS011;11018;51.258;6.806;2023-02-07T06:00:08;10.85;;;7.25;;
4353;SDS011;11018;51.258;6.806;2023-02-07T06:02:38;14.55;;;7.80;;
4353;SDS011;11018;51.258;6.806;2023-02-07T06:05:05;12.90;;;7.60;;
4353;SDS011;11018;51.258;6.806;2023-02-07T06:07:32;10.45;;;7.38;;
4353;SDS011;11018;51.258;6.806;2023-02-07T06:09:57;10.88;;;8.15;;
4353;SDS011;11018;51.258;6.806;2023-02-07T06:12:23;15.20;;;8.20;;
4353;SDS011;11018;51.258;6.806;2023-02-07T06:14:48;11.80;;;7.90;;
4353;SDS011;11018;51.258;6.806;2023-02-07T06:17:14;13.33;;;7.90;;
4353;SDS011;11018;51.258;6.806;2023-02-07T06:19:39;12.37;;;8.57;;
4353;SDS011;11018;51.258;6.806;2023-02-07T06:22:05;16.10;;;9.60;;
4353;SDS011;11018;51.258;6.806;2023-02-07T06:24:30;15.65;;;9.60;;
4353;SDS011;11018;51.258;6.806;2023-02-07T06:26:56;15.50;;;9.60;;
4353;SDS011;11018;51.258;6.806;2023-02-07T06:29:21;16.57;;;9.67;;
4353;SDS011;11018;51.258;6.806;2023-02-07T06:31:47;15.13;;;9.40;;
4353;SDS011;11018;51.258;6.806;2023-02-07T06:34:13;17.52;;;9.85;;
4353;SDS011;11018;51.258;6.806;2023-02-07T06:36:38;14.65;;;9.77;;
4353;SDS011;11018;51.258;6.806;2023-02-07T06:39:04;14.77;;;9.50;;
4353;SDS011;11018;51.258;6.806;2023-02-07T06:41:29;19.13;;;10.20;;
4353;SDS011;11018;51.258;6.806;2023-02-07T06:43:55;16.10;;;9.20;;
4353;SDS011;11018;51.258;6.806;2023-02-07T06:46:20;13.68;;;9.45;;
4353;SDS011;11018;51.258;6.806;2023-02-07T06:48:46;16.70;;;10.50;;
4353;SDS011;11018;51.258;6.806;2023-02-07T06:51:12;16.30;;;10.50;;
4353;SDS011;11018;51.258;6.806;2023-02-07T06:53:37;19.88;;;10.85;;
4353;SDS011;11018;51.258;6.806;2023-02-07T06:56:03;14.75;;;9.93;;
4353;SDS011;11018;51.258;6.806;2023-02-07T06:58:29;22.00;;;9.90;;
4353;SDS011;11018;51.258;6.806;2023-02-07T07:00:54;15.75;;;9.63;;
4353;SDS011;11018;51.258;6.806;2023-02-07T07:03:20;17.65;;;10.32;;
4353;SDS011;11018;51.258;6.806;2023-02-07T07:05:50;22.77;;;10.07;;
4353;SDS011;11018;51.258;6.806;2023-02-07T07:08:16;18.58;;;10.68;;
4353;SDS011;11018;51.258;6.806;2023-02-07T07:10:42;16.50;;;10.30;;
4353;SDS011;11018;51.258;6.806;2023-02-07T07:13:09;19.45;;;10.63;;
4353;SDS011;11018;51.258;6.806;2023-02-07T07:15:35;24.63;;;12.05;;
4353;SDS011;11018;51.258;6.806;2023-02-07T07:18:00;16.30;;;10.93;;
4353;SDS011;11018;51.258;6.806;2023-02-07T07:20:26;15.80;;;10.40;;
4353;SDS011;11018;51.258;6.806;2023-02-07T07:22:52;18.20;;;11.60;;
4353;SDS011;11018;51.258;6.806;2023-02-07T07:25:17;22.43;;;11.77;;
4353;SDS011;11018;51.258;6.806;2023-02-07T07:27:43;20.15;;;11.20;;
4353;SDS011;11018;51.258;6.806;2023-02-07T07:30:09;22.20;;;11.90;;
4353;SDS011;11018;51.258;6.806;2023-02-07T07:32:36;21.00;;;11.52;;
4353;SDS011;11018;51.258;6.806;2023-02-07T07:35:02;23.38;;;12.50;;
4353;SDS011;11018;51.258;6.806;2023-02-07T07:37:28;21.50;;;12.10;;
4353;SDS011;11018;51.258;6.806;2023-02-07T07:39:54;28.25;;;11.93;;
4353;SDS011;11018;51.258;6.806;2023-02-07T07:42:20;26.30;;;12.20;;
4353;SDS011;11018;51.258;6.806;2023-02-07T07:44:45;24.92;;;12.63;;
4353;SDS011;11018;51.258;6.806;2023-02-07T07:47:11;25.90;;;13.90;;
4353;SDS011;11018;51.258;6.806;2023-02-07T07:49:43;22.83;;;12.30;;
4353;SDS011;11018;51.258;6.806;2023-02-07T07:52:09;23.70;;;12.93;;
4353;SDS011;11018;51.258;6.806;2023-02-07T07:54:34;25.30;;;12.93;;
4353;SDS011;11018;51.258;6.806;2023-02-07T07:57:00;25.23;;;12.85;;
4353;SDS011;11018;51.258;6.806;2023-02-07T07:59:26;35.42;;;13.98;;
4353;SDS011;11018;51.258;6.806;2023-02-07T08:01:51;21.13;;;11.73;;
4353;SDS011;11018;51.258;6.806;2023-02-07T08:04:17;18.17;;;11.63;;
4353;SDS011;11018;51.258;6.806;2023-02-07T08:06:42;20.85;;;12.30;;
4353;SDS011;11018;51.258;6.806;2023-02-07T08:09:08;21.60;;;12.90;;
4353;SDS011;11018;51.258;6.806;2023-02-07T08:11:34;24.33;;;12.80;;
4353;SDS011;11018;51.258;6.806;2023-02-07T08:13:59;24.93;;;12.13;;
4353;SDS011;11018;51.258;6.806;2023-02-07T08:16:25;30.13;;;14.70;;
4353;SDS011;11018;51.258;6.806;2023-02-07T08:18:50;23.17;;;12.77;;
4353;SDS011;11018;51.258;6.806;2023-02-07T08:21:16;24.30;;;11.40;;
4353;SDS011;11018;51.258;6.806;2023-02-07T08:23:41;22.47;;;11.40;;
4353;SDS011;11018;51.258;6.806;2023-02-07T08:26:07;16.63;;;10.07;;
4353;SDS011;11018;51.258;6.806;2023-02-07T08:28:32;16.90;;;10.53;;
4353;SDS011;11018;51.258;6.806;2023-02-07T08:31:02;21.60;;;11.70;;
4353;SDS011;11018;51.258;6.806;2023-02-07T08:33:29;18.45;;;10.55;;
4353;SDS011;11018;51.258;6.806;2023-02-07T08:35:55;17.63;;;10.98;;
4353;SDS011;11018;51.258;6.806;2023-02-07T08:38:21;20.77;;;11.13;;
4353;SDS011;11018;51.258;6.806;2023-02-07T08:40:47;15.63;;;9.93;;
4353;SDS011;11018;51.258;6.806;2023-02-07T08:43:12;16.98;;;10.43;;
4353;SDS011;11018;51.258;6.806;2023-02-07T08:45:39;17.23;;;10.27;;
4353;SDS011;11018;51.258;6.806;2023-02-07T08:48:06;22.80;;;10.60;;
4353;SDS011;11018;51.258;6.806;2023-02-07T08:50:32;22.77;;;11.30;;
4353;SDS011;11018;51.258;6.806;2023-02-07T08:52:57;16.00;;;10.25;;
4353;SDS011;11018;51.258;6.806;2023-02-07T08:55:23;17.17;;;10.93;;
4353;SDS011;11018;51.258;6.806;2023-02-07T08:57:48;20.45;;;12.60;;
4353;SDS011;11018;51.258;6.806;2023-02-07T09:00:14;16.63;;;11.88;;
4353;SDS011;11018;51.258;6.806;2023-02-07T09:02:40;18.40;;;11.77;;
4353;SDS011;11018;51.258;6.806;2023-02-07T09:05:07;21.15;;;11.55;;
4353;SDS011;11018;51.258;6.806;2023-02-07T09:07:33;15.02;;;9.70;;
4353;SDS011;11018;51.258;6.806;2023-02-07T09:09:58;14.60;;;10.07;;
4353;SDS011;11018;51.258;6.806;2023-02-07T09:12:24;17.58;;;11.00;;
4353;SDS011;11018;51.258;6.806;2023-02-07T09:14:50;11.97;;;8.57;;
4353;SDS011;11018;51.258;6.806;2023-02-07T09:17:15;15.23;;;8.90;;
4353;SDS011;11018;51.258;6.806;2023-02-07T09:19:41;18.47;;;9.87;;
4353;SDS011;11018;51.258;6.806;2023-02-07T09:22:06;20.33;;;10.17;;
4353;SDS011;11018;51.258;6.806;2023-02-07T09:24:32;29.60;;;16.73;;
4353;SDS011;11018;51.258;6.806;2023-02-07T09:26:57;15.25;;;10.00;;
4353;SDS011;11018;51.258;6.806;2023-02-07T09:29:24;15.10;;;9.85;;
4353;SDS011;11018;51.258;6.806;2023-02-07T09:31:50;13.07;;;8.93;;
4353;SDS011;11018;51.258;6.806;2023-02-07T09:34:16;15.38;;;9.73;;
4353;SDS011;11018;51.258;6.806;2023-02-07T09:36:41;14.60;;;10.30;;
4353;SDS011;11018;51.258;6.806;2023-02-07T09:39:07;16.17;;;9.10;;
4353;SDS011;11018;51.258;6.806;2023-02-07T09:47:02;12.68;;;9.90;;
4353;SDS011;11018;51.258;6.806;2023-02-07T09:52:28;11.93;;;9.30;;
4353;SDS011;11018;51.258;6.806;2023-02-07T09:54:59;16.42;;;11.27;;
4353;SDS011;11018;51.258;6.806;2023-02-07T09:57:34;13.48;;;10.13;;
4353;SDS011;11018;51.258;6.806;2023-02-07T10:00:06;15.85;;;9.15;;
4353;SDS011;11018;51.258;6.806;2023-02-07T10:02:43;13.38;;;8.80;;
4353;SDS011;11018;51.258;6.806;2023-02-07T10:05:20;14.73;;;10.10;;
4353;SDS011;11018;51.258;6.806;2023-02-07T10:07:50;12.35;;;8.48;;
4353;SDS011;11018;51.258;6.806;2023-02-07T10:10:17;14.55;;;10.32;;
4353;SDS011;11018;51.258;6.806;2023-02-07T10:12:52;11.20;;;8.13;;
4353;SDS011;11018;51.258;6.806;2023-02-07T10:15:34;13.10;;;9.15;;
4353;SDS011;11018;51.258;6.806;2023-02-07T10:26:01;15.45;;;10.43;;
4353;SDS011;11018;51.258;6.806;2023-02-07T10:31:16;13.70;;;9.20;;
4353;SDS011;11018;51.258;6.806;2023-02-07T10:34:27;11.35;;;8.23;;
4353;SDS011;11018;51.258;6.806;2023-02-07T10:36:33;11.02;;;8.18;;
4353;SDS011;11018;51.258;6.806;2023-02-07T10:39:03;11.32;;;8.50;;
4353;SDS011;11018;51.258;6.806;2023-02-07T10:41:36;12.43;;;8.40;;
4353;SDS011;11018;51.258;6.806;2023-02-07T10:44:11;13.25;;;9.32;;
4353;SDS011;11018;51.258;6.806;2023-02-07T10:46:40;25.48;;;10.30;;
4353;SDS011;11018;51.258;6.806;2023-02-07T10:49:12;14.50;;;9.00;;
4353;SDS011;11018;51.258;6.806;2023-02-07T10:51:44;12.80;;;8.90;;
4353;SDS011;11018;51.258;6.806;2023-02-07T10:54:11;10.65;;;8.00;;
4353;SDS011;11018;51.258;6.806;2023-02-07T10:56:44;13.57;;;8.73;;
4353;SDS011;11018;51.258;6.806;2023-02-07T10:59:47;12.40;;;8.32;;
4353;SDS011;11018;51.258;6.806;2023-02-07T11:05:00;10.50;;;7.70;;
4353;SDS011;11018;51.258;6.806;2023-02-07T11:07:27;14.30;;;8.40;;
4353;SDS011;11018;51.258;6.806;2023-02-07T11:10:15;13.27;;;9.33;;
4353;SDS011;11018;51.258;6.806;2023-02-07T11:12:48;11.07;;;8.20;;
4353;SDS011;11018;51.258;6.806;2023-02-07T11:15:19;10.15;;;7.70;;
4353;SDS011;11018;51.258;6.806;2023-02-07T11:20:29;11.38;;;7.60;;
4353;SDS011;11018;51.258;6.806;2023-02-07T11:22:59;10.65;;;7.60;;
4353;SDS011;11018;51.258;6.806;2023-02-07T11:25:31;13.30;;;8.10;;
4353;SDS011;11018;51.258;6.806;2023-02-07T11:28:02;9.68;;;7.80;;
4353;SDS011;11018;51.258;6.806;2023-02-07T11:30:28;13.00;;;7.38;;
4353;SDS011;11018;51.258;6.806;2023-02-07T11:33:04;11.55;;;7.70;;
4353;SDS011;11018;51.258;6.806;2023-02-07T11:35:56;12.13;;;7.70;;
4353;SDS011;11018;51.258;6.806;2023-02-07T11:38:38;14.27;;;8.13;;
4353;SDS011;11018;51.258;6.806;2023-02-07T11:41:09;11.35;;;7.32;;
4353;SDS011;11018;51.258;6.806;2023-02-07T11:43:55;12.53;;;7.80;;
4353;SDS011;11018;51.258;6.806;2023-02-07T11:49:17;12.60;;;8.40;;
4353;SDS011;11018;51.258;6.806;2023-02-07T11:51:51;12.63;;;7.90;;
4353;SDS011;11018;51.258;6.806;2023-02-07T11:54:21;11.45;;;7.80;;
4353;SDS011;11018;51.258;6.806;2023-02-07T11:56:48;14.00;;;8.40;;
4353;SDS011;11018;51.258;6.806;2023-02-07T11:59:24;12.25;;;8.15;;
4353;SDS011;11018;51.258;6.806;2023-02-07T12:01:53;10.70;;;7.40;;
4353;SDS011;11018;51.258;6.806;2023-02-07T12:04:25;10.80;;;7.10;;
4353;SDS011;11018;51.258;6.806;2023-02-07T12:06:57;11.32;;;7.45;;
4353;SDS011;11018;51.258;6.806;2023-02-07T12:09:59;11.48;;;7.53;;
4353;SDS011;11018;51.258;6.806;2023-02-07T12:23:37;13.95;;;8.73;;
4353;SDS011;11018;51.258;6.806;2023-02-07T12:26:14;10.98;;;8.30;;
4353;SDS011;11018;51.258;6.806;2023-02-07T12:28:49;12.45;;;7.45;;
4353;SDS011;11018;51.258;6.806;2023-02-07T12:31:39;11.23;;;8.65;;
4353;SDS011;11018;51.258;6.806;2023-02-07T12:34:49;10.83;;;6.97;;
4353;SDS011;11018;51.258;6.806;2023-02-07T12:43:09;10.23;;;6.30;;
4353;SDS011;11018;51.258;6.806;2023-02-07T12:56:57;11.35;;;7.35;;
4353;SDS011;11018;51.258;6.806;2023-02-07T12:59:49;9.63;;;6.80;;
4353;SDS011;11018;51.258;6.806;2023-02-07T13:02:37;8.75;;;6.25;;
4353;SDS011;11018;51.258;6.806;2023-02-07T13:10:58;10.05;;;7.13;;
4353;SDS011;11018;51.258;6.806;2023-02-07T13:16:43;12.20;;;7.45;;
4353;SDS011;11018;51.258;6.806;2023-02-07T13:19:21;10.60;;;7.30;;
4353;SDS011;11018;51.258;6.806;2023-02-07T13:22:00;11.40;;;6.70;;
4353;SDS011;11018;51.258;6.806;2023-02-07T13:24:33;11.48;;;7.60;;
4353;SDS011;11018;51.258;6.806;2023-02-07T13:27:02;10.68;;;6.90;;
4353;SDS011;11018;51.258;6.806;2023-02-07T13:29:33;10.15;;;6.45;;
4353;SDS011;11018;51.258;6.806;2023-02-07T13:32:01;8.98;;;6.50;;
4353;SDS011;11018;51.258;6.806;2023-02-07T13:34:39;12.45;;;7.60;;
4353;SDS011;11018;51.258;6.806;2023-02-07T13:37:10;11.27;;;7.70;;
4353;SDS011;11018;51.258;6.806;2023-02-07T13:50:48;15.20;;;7.30;;
4353;SDS011;11018;51.258;6.806;2023-02-07T13:56:09;13.60;;;6.35;;
4353;SDS011;11018;51.258;6.806;2023-02-07T13:58:55;10.40;;;6.03;;
4353;SDS011;11018;51.258;6.806;2023-02-07T14:01:49;9.20;;;6.40;;
4353;SDS011;11018;51.258;6.806;2023-02-07T14:04:17;8.33;;;6.10;;
4353;SDS011;11018;51.258;6.806;2023-02-07T14:06:44;12.20;;;7.03;;
4353;SDS011;11018;51.258;6.806;2023-02-07T14:09:39;11.05;;;6.97;;
4353;SDS011;11018;51.258;6.806;2023-02-07T14:15:16;9.73;;;6.30;;
4353;SDS011;11018;51.258;6.806;2023-02-07T14:18:03;7.70;;;6.10;;
4353;SDS011;11018;51.258;6.806;2023-02-07T14:20:49;8.48;;;5.80;;
4353;SDS011;11018;51.258;6.806;2023-02-07T14:23:33;10.10;;;6.45;;
4353;SDS011;11018;51.258;6.806;2023-02-07T14:32:30;8.40;;;6.00;;
4353;SDS011;11018;51.258;6.806;2023-02-07T14:48:29;14.23;;;6.47;;
4353;SDS011;11018;51.258;6.806;2023-02-07T14:51:22;9.98;;;6.32;;
4353;SDS011;11018;51.258;6.806;2023-02-07T14:57:13;9.35;;;6.10;;
4353;SDS011;11018;51.258;6.806;2023-02-07T15:02:38;9.55;;;5.75;;
4353;SDS011;11018;51.258;6.806;2023-02-07T15:05:14;10.20;;;5.70;;
4353;SDS011;11018;51.258;6.806;2023-02-07T15:07:46;7.68;;;5.80;;
4353;SDS011;11018;51.258;6.806;2023-02-07T15:10:13;5.93;;;5.22;;
4353;SDS011;11018;51.258;6.806;2023-02-07T15:12:40;6.68;;;5.00;;
4353;SDS011;11018;51.258;6.806;2023-02-07T15:15:07;9.43;;;5.72;;
4353;SDS011;11018;51.258;6.806;2023-02-07T15:17:45;6.95;;;5.50;;
4353;SDS011;11018;51.258;6.806;2023-02-07T15:20:16;7.50;;;4.90;;
4353;SDS011;11018;51.258;6.806;2023-02-07T15:22:47;8.30;;;5.25;;
4353;SDS011;11018;51.258;6.806;2023-02-07T15:25:16;11.55;;;6.00;;
4353;SDS011;11018;51.258;6.806;2023-02-07T15:27:42;8.37;;;5.70;;
4353;SDS011;11018;51.258;6.806;2023-02-07T15:30:27;9.02;;;5.50;;
4353;SDS011;11018;51.258;6.806;2023-02-07T15:32:53;13.35;;;5.40;;
4353;SDS011;11018;51.258;6.806;2023-02-07T15:35:24;9.97;;;6.00;;
4353;SDS011;11018;51.258;6.806;2023-02-07T15:37:52;11.95;;;5.25;;
4353;SDS011;11018;51.258;6.806;2023-02-07T15:40:19;7.95;;;5.65;;
4353;SDS011;11018;51.258;6.806;2023-02-07T15:45:25;12.23;;;6.95;;
4353;SDS011;11018;51.258;6.806;2023-02-07T15:47:56;7.47;;;5.57;;
4353;SDS011;11018;51.258;6.806;2023-02-07T15:50:28;15.85;;;6.32;;
4353;SDS011;11018;51.258;6.806;2023-02-07T15:52:55;10.50;;;5.80;;
4353;SDS011;11018;51.258;6.806;2023-02-07T15:57:59;9.82;;;6.20;;
4353;SDS011;11018;51.258;6.806;2023-02-07T16:00:27;10.23;;;6.45;;
4353;SDS011;11018;51.258;6.806;2023-02-07T16:03:03;8.10;;;5.38;;
4353;SDS011;11018;51.258;6.806;2023-02-07T16:05:31;16.83;;;7.38;;
4353;SDS011;11018;51.258;6.806;2023-02-07T16:08:04;12.10;;;6.88;;
4353;SDS011;11018;51.258;6.806;2023-02-07T16:10:34;13.85;;;7.32;;
4353;SDS011;11018;51.258;6.806;2023-02-07T16:13:08;11.80;;;7.20;;
4353;SDS011;11018;51.258;6.806;2023-02-07T16:16:06;11.27;;;7.45;;
4353;SDS011;11018;51.258;6.806;2023-02-07T16:18:34;9.27;;;5.60;;
4353;SDS011;11018;51.258;6.806;2023-02-07T16:21:11;8.90;;;5.90;;
4353;SDS011;11018;51.258;6.806;2023-02-07T16:23:40;10.63;;;6.55;;
4353;SDS011;11018;51.258;6.806;2023-02-07T16:26:06;12.73;;;5.70;;
4353;SDS011;11018;51.258;6.806;2023-02-07T16:28:32;9.77;;;6.60;;
4353;SDS011;11018;51.258;6.806;2023-02-07T16:30:58;15.32;;;7.00;;
4353;SDS011;11018;51.258;6.806;2023-02-07T16:33:24;9.65;;;5.53;;
4353;SDS011;11018;51.258;6.806;2023-02-07T16:35:50;14.50;;;6.65;;
4353;SDS011;11018;51.258;6.806;2023-02-07T16:38:15;8.65;;;6.53;;
4353;SDS011;11018;51.258;6.806;2023-02-07T16:40:41;15.38;;;6.50;;
4353;SDS011;11018;51.258;6.806;2023-02-07T16:43:07;12.63;;;6.50;;
4353;SDS011;11018;51.258;6.806;2023-02-07T16:45:32;14.87;;;6.50;;
4353;SDS011;11018;51.258;6.806;2023-02-07T16:48:01;11.70;;;6.40;;
4353;SDS011;11018;51.258;6.806;2023-02-07T16:50:28;12.40;;;6.75;;
4353;SDS011;11018;51.258;6.806;2023-02-07T16:52:55;13.82;;;7.20;;
4353;SDS011;11018;51.258;6.806;2023-02-07T16:55:21;11.18;;;6.50;;
4353;SDS011;11018;51.258;6.806;2023-02-07T16:57:50;16.63;;;7.00;;
4353;SDS011;11018;51.258;6.806;2023-02-07T17:00:17;12.93;;;6.53;;
4353;SDS011;11018;51.258;6.806;2023-02-07T17:02:46;9.05;;;6.00;;
4353;SDS011;11018;51.258;6.806;2023-02-07T17:05:13;12.02;;;6.88;;
4353;SDS011;11018;51.258;6.806;2023-02-07T17:07:40;13.73;;;7.85;;
4353;SDS011;11018;51.258;6.806;2023-02-07T17:10:48;18.00;;;8.37;;
4353;SDS011;11018;51.258;6.806;2023-02-07T17:12:55;16.70;;;8.13;;
4353;SDS011;11018;51.258;6.806;2023-02-07T17:15:21;22.70;;;8.18;;
4353;SDS011;11018;51.258;6.806;2023-02-07T17:17:47;18.95;;;7.63;;
4353;SDS011;11018;51.258;6.806;2023-02-07T17:22:50;18.52;;;8.13;;
4353;SDS011;11018;51.258;6.806;2023-02-07T17:25:16;15.40;;;8.15;;
4353;SDS011;11018;51.258;6.806;2023-02-07T17:27:43;21.02;;;8.13;;
4353;SDS011;11018;51.258;6.806;2023-02-07T17:30:11;15.75;;;8.25;;